Time;durP1;ratioP1;P1;durP2;ratioP2;P2;SDS_P1;SDS_P2;PMS_P1;PMS_P2;Temp;Humidity;BMP_temperature;BMP_pressure;BME280_temperature;BME280_humidity;BME280_pressure;Samples;Min_cycle;Max_cycle;Signal;HPM_P1;HPM_P2
2022/03/22 00:00:43;;;;;;;35.88;18.70;;;;;;;12.21;47.24;102986.16;4953878;28;114868;-61
2022/03/22 00:03:10;;;;;;;35.67;18.52;;;;;;;12.17;47.49;102992.44;4959810;28;124184;-61
2022/03/22 00:05:40;;;;;;;33.70;18.17;;;;;;;12.13;47.69;102991.59;4957485;28;123954;-61
2022/03/22 00:08:08;;;;;;;34.97;17.17;;;;;;;12.10;47.57;102991.63;4959801;28;115295;-61
2022/03/22 00:10:36;;;;;;;37.67;18.55;;;;;;;12.07;47.63;102991.69;4950999;28;113983;-61
2022/03/22 00:13:05;;;;;;;38.42;18.25;;;;;;;12.03;47.85;102992.63;4951656;28;124272;-61
2022/03/22 00:15:33;;;;;;;35.15;18.40;;;;;;;12.00;47.86;102990.91;4956923;28;124533;-61
2022/03/22 00:18:20;;;;;;;38.60;18.60;;;;;;;11.97;47.87;102995.41;4954826;28;114257;-61
2022/03/22 00:20:49;;;;;;;38.47;19.17;;;;;;;11.94;48.13;102995.44;4964215;28;113891;-61
2022/03/22 00:23:19;;;;;;;33.38;17.92;;;;;;;11.91;47.85;102990.19;4959370;28;124040;-62
2022/03/22 00:25:46;;;;;;;35.60;18.67;;;;;;;11.90;48.14;102993.75;4961117;28;124499;-62
2022/03/22 00:28:13;;;;;;;34.40;18.17;;;;;;;11.86;48.06;102993.75;4958118;28;114199;-61
2022/03/22 00:30:41;;;;;;;35.38;18.27;;;;;;;11.83;47.94;102999.13;4958988;28;114265;-61
2022/03/22 00:33:09;;;;;;;34.30;17.80;;;;;;;11.79;48.18;102997.44;4962418;28;124345;-62
2022/03/22 00:35:38;;;;;;;38.45;18.83;;;;;;;11.75;48.29;102990.38;4965038;28;124051;-61
2022/03/22 00:38:13;;;;;;;34.35;18.08;;;;;;;11.73;48.26;103007.25;4959565;28;114853;-61
2022/03/22 00:40:41;;;;;;;37.45;18.10;;;;;;;11.69;48.17;103001.09;4954845;28;113897;-62
2022/03/22 00:43:08;;;;;;;34.75;18.38;;;;;;;11.68;48.26;103009.97;4963532;28;123996;-62
2022/03/22 00:45:37;;;;;;;33.70;17.17;;;;;;;11.66;48.21;103006.47;4956013;28;123893;-61
2022/03/22 00:48:13;;;;;;;29.95;16.50;;;;;;;11.65;48.17;103010.03;4959581;28;115026;-62
2022/03/22 00:50:43;;;;;;;36.42;17.88;;;;;;;11.63;48.44;103017.13;4963826;28;115405;-62
2022/03/22 00:53:17;;;;;;;33.90;17.48;;;;;;;11.60;48.54;103009.19;4964046;28;124884;-62
2022/03/22 00:55:45;;;;;;;31.52;16.60;;;;;;;11.59;48.38;103010.13;4958195;28;124591;-62
2022/03/22 00:58:13;;;;;;;34.92;16.83;;;;;;;11.56;48.38;103007.50;4956835;28;114149;-62
2022/03/22 01:00:41;;;;;;;33.05;17.20;;;;;;;11.55;48.34;103008.41;4957965;28;113785;-61
2022/03/22 01:03:09;;;;;;;35.65;17.25;;;;;;;11.52;48.53;103001.34;4954197;28;123132;-62
2022/03/22 01:05:37;;;;;;;29.80;16.52;;;;;;;11.49;48.31;103010.25;4960039;28;125234;-62
2022/03/22 01:08:08;;;;;;;31.73;16.55;;;;;;;11.47;48.69;103012.03;4956298;28;114644;-61
2022/03/22 01:10:41;;;;;;;34.70;17.35;;;;;;;11.43;48.55;103010.34;4949763;28;115082;-61
2022/03/22 01:13:13;;;;;;;30.30;16.08;;;;;;;11.41;48.85;103006.78;4963650;28;124194;-61
2022/03/22 01:15:42;;;;;;;34.17;17.40;;;;;;;11.40;48.80;103007.72;4954117;28;124869;-61
2022/03/22 01:18:12;;;;;;;36.42;17.70;;;;;;;11.39;48.68;103008.59;4957697;28;114337;-61
2022/03/22 01:20:46;;;;;;;33.17;17.70;;;;;;;11.38;48.87;103006.84;4953981;28;114311;-62
2022/03/22 01:23:15;;;;;;;32.13;15.47;;;;;;;11.37;48.87;103005.09;4959050;28;124043;-62
2022/03/22 01:25:43;;;;;;;35.08;17.27;;;;;;;11.35;48.94;103011.31;4955782;28;124285;-62
2022/03/22 01:28:13;;;;;;;36.67;16.92;;;;;;;11.33;48.96;103005.16;4953530;28;114269;-62
2022/03/22 01:30:41;;;;;;;32.70;16.80;;;;;;;11.30;48.61;103014.03;4957501;28;114274;-62
2022/03/22 01:33:11;;;;;;;32.85;17.13;;;;;;;11.26;48.82;103012.31;4953369;28;123863;-62
2022/03/22 01:35:40;;;;;;;32.53;16.80;;;;;;;11.23;48.98;103007.06;4960671;28;124521;-62
2022/03/22 01:38:07;;;;;;;33.65;16.65;;;;;;;11.20;49.15;103007.97;4955187;28;115444;-62
2022/03/22 01:40:36;;;;;;;31.98;16.63;;;;;;;11.18;49.13;103003.59;4955271;28;115257;-62
2022/03/22 01:43:04;;;;;;;32.17;16.42;;;;;;;11.17;49.27;103007.13;4959017;28;124066;-62
2022/03/22 01:45:32;;;;;;;28.70;16.10;;;;;;;11.15;49.08;103003.63;4957924;28;124388;-62
2022/03/22 01:48:02;;;;;;;32.60;16.08;;;;;;;11.14;49.35;103001.88;4952863;28;114445;-62
2022/03/22 01:50:30;;;;;;;29.75;15.55;;;;;;;11.14;48.91;103007.19;4960090;28;113297;-62
2022/03/22 01:52:58;;;;;;;31.17;15.70;;;;;;;11.12;49.35;102998.38;4958545;28;124047;-62
2022/03/22 01:55:26;;;;;;;32.58;16.25;;;;;;;11.10;49.24;103011.66;4955478;28;124156;-62
2022/03/22 01:57:54;;;;;;;35.75;16.70;;;;;;;11.08;49.15;103009.00;4956548;28;114728;-62
2022/03/22 02:00:22;;;;;;;30.42;15.80;;;;;;;11.07;49.28;103001.94;4959122;28;113923;-62
2022/03/22 02:05:55;;;;;;;32.00;15.43;;;;;;;11.03;49.09;103000.22;4960740;28;124616;-62
2022/03/22 02:08:25;;;;;;;30.77;15.33;;;;;;;11.01;49.32;102996.72;4954028;28;113309;-62
2022/03/22 02:10:53;;;;;;;33.15;17.33;;;;;;;11.01;49.06;102995.84;4953407;28;114541;-62
2022/03/22 02:13:21;;;;;;;29.83;16.23;;;;;;;11.00;49.45;102999.38;4961488;28;123811;-62
2022/03/22 02:15:53;;;;;;;33.38;16.23;;;;;;;10.99;49.07;102998.50;4957402;28;124193;-62
2022/03/22 02:18:21;;;;;;;28.23;16.00;;;;;;;10.95;49.22;102991.50;4955410;28;115139;-61
2022/03/22 02:20:48;;;;;;;30.38;16.08;;;;;;;10.92;49.44;102991.50;4959595;28;113994;-62
2022/03/22 02:23:38;;;;;;;35.45;16.10;;;;;;;10.89;49.31;102996.88;4956026;28;124630;-62
2022/03/22 02:26:06;;;;;;;29.55;15.63;;;;;;;10.85;49.11;102989.81;4951126;28;123922;-62
2022/03/22 02:28:34;;;;;;;29.98;15.35;;;;;;;10.82;49.08;102989.88;4956984;28;115288;-62
2022/03/22 02:31:01;;;;;;;28.52;15.25;;;;;;;10.79;49.16;102989.91;4948809;28;115233;-62
2022/03/22 02:33:29;;;;;;;27.67;15.05;;;;;;;10.77;49.23;102989.06;4953481;28;124814;-62
2022/03/22 02:35:56;;;;;;;28.98;14.80;;;;;;;10.75;49.39;102989.06;4951393;28;124123;-62
2022/03/22 02:38:23;;;;;;;27.65;14.88;;;;;;;10.74;49.55;102991.72;4955205;28;114398;-62
2022/03/22 02:40:50;;;;;;;26.35;14.63;;;;;;;10.74;49.51;102986.41;4955966;28;114161;-62
2022/03/22 02:43:18;;;;;;;26.83;14.88;;;;;;;10.77;49.62;102986.41;4960180;28;124228;-62
2022/03/22 02:45:45;;;;;;;26.83;14.48;;;;;;;10.77;49.68;102991.69;4958593;28;123883;-62
2022/03/22 02:48:13;;;;;;;27.63;15.25;;;;;;;10.77;49.64;102987.28;4957975;28;113515;-62
2022/03/22 02:50:40;;;;;;;26.65;14.25;;;;;;;10.78;49.40;102988.16;4964672;28;114451;-62
2022/03/22 02:53:07;;;;;;;31.17;14.88;;;;;;;10.75;49.23;102993.50;4954938;28;124508;-63
2022/03/22 02:55:34;;;;;;;27.98;15.10;;;;;;;10.71;49.24;102990.88;4956012;28;123088;-62
2022/03/22 02:58:03;;;;;;;26.63;14.45;;;;;;;10.66;49.11;102995.38;4960875;28;114435;-62
2022/03/22 03:00:30;;;;;;;26.63;14.85;;;;;;;10.62;49.06;102993.59;4949734;28;114666;-62
2022/03/22 03:02:58;;;;;;;27.30;15.50;;;;;;;10.59;49.16;102992.78;4958354;28;123860;-62
2022/03/22 03:05:25;;;;;;;28.92;14.70;;;;;;;10.55;48.98;102994.59;4968107;28;121832;-62
2022/03/22 03:07:52;;;;;;;28.15;14.60;;;;;;;10.50;49.10;102999.91;4963609;28;113436;-62
2022/03/22 03:10:19;;;;;;;29.75;15.23;;;;;;;10.45;49.13;103001.75;4952153;28;114264;-62
2022/03/22 03:12:47;;;;;;;30.73;15.32;;;;;;;10.40;49.08;103003.56;4960931;28;124338;-62
2022/03/22 03:15:16;;;;;;;31.58;15.18;;;;;;;10.35;49.63;103005.38;4957587;28;124227;-62
2022/03/22 03:17:43;;;;;;;31.67;14.85;;;;;;;10.31;49.73;103004.53;4957275;28;115041;-62
2022/03/22 03:20:11;;;;;;;29.10;14.90;;;;;;;10.30;49.53;103007.16;4960838;28;115389;-62
2022/03/22 03:22:38;;;;;;;30.95;15.07;;;;;;;10.26;49.35;103006.28;4962389;28;124631;-62
2022/03/22 03:25:08;;;;;;;28.75;15.10;;;;;;;10.24;49.42;103002.78;4953492;28;123963;-62
2022/03/22 03:27:36;;;;;;;29.33;14.77;;;;;;;10.22;49.30;103001.91;4962113;28;113392;-62
2022/03/22 03:30:05;;;;;;;31.85;15.88;;;;;;;10.20;49.61;103006.34;4955393;28;113875;-62
2022/03/22 03:32:35;;;;;;;27.40;14.93;;;;;;;10.18;49.70;103002.84;4960127;28;124011;-62
2022/03/22 03:35:04;;;;;;;26.23;15.13;;;;;;;10.17;49.42;103006.41;4959782;28;124500;-62
2022/03/22 03:37:35;;;;;;;30.17;14.63;;;;;;;10.15;49.61;103008.16;4956624;28;115316;-62
2022/03/22 03:40:06;;;;;;;28.33;13.50;;;;;;;10.12;49.43;103013.50;4956013;28;115192;-62
2022/03/22 03:42:35;;;;;;;27.60;13.75;;;;;;;10.08;49.67;103011.78;4959045;28;122981;-62
2022/03/22 03:47:48;;;;;;;29.48;14.52;;;;;;;9.98;49.31;103010.06;4980449;28;113353;-62
2022/03/22 03:50:15;;;;;;;30.45;13.90;;;;;;;9.94;49.66;103014.50;4956226;28;114326;-62
2022/03/22 03:52:42;;;;;;;28.45;13.38;;;;;;;9.89;49.67;103009.25;4956610;28;123782;-62
2022/03/22 03:55:10;;;;;;;28.00;14.20;;;;;;;9.88;49.91;103010.13;4956177;28;123791;-62
2022/03/22 03:57:37;;;;;;;30.58;14.48;;;;;;;9.86;49.80;103011.91;4954752;28;114236;-62
2022/03/22 04:00:07;;;;;;;28.35;14.65;;;;;;;9.86;49.75;103016.34;4950052;28;114329;-62
2022/03/22 04:02:41;;;;;;;29.17;14.60;;;;;;;9.84;49.67;103019.00;4947851;28;124101;-62
2022/03/22 04:05:09;;;;;;;28.25;14.60;;;;;;;9.84;49.57;103019.00;4957273;28;124230;-62
2022/03/22 04:07:37;;;;;;;27.77;14.50;;;;;;;9.81;49.86;103029.59;4958055;28;114276;-62
2022/03/22 04:10:05;;;;;;;26.73;13.48;;;;;;;9.78;49.81;103034.91;4952946;28;115141;-62
2022/03/22 04:12:38;;;;;;;27.27;13.90;;;;;;;9.74;49.44;103033.19;4960146;28;124282;-62
2022/03/22 04:15:06;;;;;;;28.30;14.30;;;;;;;9.69;49.85;103029.69;4958772;28;123860;-61
2022/03/22 04:17:34;;;;;;;29.33;14.40;;;;;;;9.67;49.70;103034.09;4950933;28;114680;-62
2022/03/22 04:20:02;;;;;;;31.10;14.98;;;;;;;9.62;49.74;103033.25;4951341;28;114114;-63
2022/03/22 04:22:30;;;;;;;26.90;14.27;;;;;;;9.60;49.82;103035.88;4954831;28;124124;-63
2022/03/22 04:24:57;;;;;;;27.67;14.45;;;;;;;9.57;49.91;103035.94;4955033;28;124201;-63
2022/03/22 04:32:56;;;;;;;26.80;13.80;;;;;;;9.49;49.69;103041.25;4953593;28;124348;-63
2022/03/22 04:35:27;;;;;;;27.65;14.10;;;;;;;9.46;49.49;103041.28;4938424;28;123685;-63
2022/03/22 04:37:56;;;;;;;28.55;13.95;;;;;;;9.43;49.89;103038.63;4950196;28;114658;-63
2022/03/22 04:40:25;;;;;;;29.67;14.77;;;;;;;9.42;49.94;103042.19;4948330;28;113193;-62
2022/03/22 04:42:52;;;;;;;29.75;14.98;;;;;;;9.40;50.06;103043.94;4948996;28;123168;-62
2022/03/22 04:45:20;;;;;;;30.55;14.38;;;;;;;9.37;50.05;103043.94;4950313;28;123861;-62
2022/03/22 04:47:49;;;;;;;27.48;14.05;;;;;;;9.35;50.13;103045.72;4953305;28;114647;-62
2022/03/22 04:50:17;;;;;;;26.35;14.25;;;;;;;9.34;50.37;103043.94;4948691;28;112973;-62
2022/03/22 04:56:43;;;;;;;30.13;14.27;;;;;;;9.31;50.13;103044.00;4950289;28;123844;-62
2022/03/22 04:58:36;;;;;;;30.33;14.23;;;;;;;9.27;50.06;103048.41;4965095;28;114260;-62
2022/03/22 05:01:04;;;;;;;26.55;14.18;;;;;;;9.27;50.24;103047.53;4955282;28;115026;-62
2022/03/22 05:03:31;;;;;;;34.60;14.00;;;;;;;9.24;50.18;103052.81;4951606;28;123878;-62
2022/03/22 05:08:45;;;;;;;33.53;14.65;;;;;;;9.20;50.14;103056.38;4956045;28;114228;-62
2022/03/22 05:11:12;;;;;;;31.00;13.95;;;;;;;9.18;50.26;103052.84;4951797;28;114149;-61
2022/03/22 05:13:39;;;;;;;32.63;14.68;;;;;;;9.16;50.25;103056.38;4955912;28;124373;-62
2022/03/22 05:16:07;;;;;;;31.10;14.25;;;;;;;9.16;50.24;103060.78;4957781;28;124095;-61
2022/03/22 05:18:36;;;;;;;27.05;13.55;;;;;;;9.15;50.51;103065.22;4950807;28;114269;-62
2022/03/22 05:21:04;;;;;;;32.25;15.02;;;;;;;9.13;50.48;103061.66;4960480;28;113916;-61
2022/03/22 05:23:34;;;;;;;31.90;14.80;;;;;;;9.13;50.57;103066.06;4952353;28;124845;-62
2022/03/22 05:26:04;;;;;;;29.10;13.85;;;;;;;9.11;50.75;103076.66;4959224;28;123696;-62
2022/03/22 05:28:33;;;;;;;29.83;14.18;;;;;;;9.09;50.92;103075.78;4952582;28;114298;-61
2022/03/22 05:31:00;;;;;;;27.52;14.52;;;;;;;9.07;50.57;103072.25;4959423;28;114051;-62
2022/03/22 05:33:27;;;;;;;26.13;14.02;;;;;;;9.06;50.84;103081.09;4962416;28;123891;-61
2022/03/22 05:35:54;;;;;;;27.48;14.40;;;;;;;9.07;50.69;103084.59;4953093;28;122872;-61
2022/03/22 05:38:25;;;;;;;32.03;14.60;;;;;;;9.05;50.50;103079.31;4958188;28;114358;-61
2022/03/22 05:40:53;;;;;;;28.63;14.90;;;;;;;9.05;50.64;103084.59;4959747;28;114358;-62
2022/03/22 05:43:21;;;;;;;30.80;14.88;;;;;;;9.05;50.85;103078.44;4954912;28;123838;-62
2022/03/22 05:45:48;;;;;;;31.00;14.18;;;;;;;9.04;50.38;103082.88;4958347;28;122985;-62
2022/03/22 05:48:17;;;;;;;31.70;15.15;;;;;;;9.03;50.53;103086.38;4957566;28;115308;-62
2022/03/22 05:50:45;;;;;;;31.35;14.18;;;;;;;9.02;50.54;103079.31;4958088;28;114878;-62
2022/03/22 05:53:13;;;;;;;28.63;14.18;;;;;;;9.00;50.62;103086.38;4959445;28;124913;-62
2022/03/22 05:55:41;;;;;;;31.27;14.82;;;;;;;8.98;50.52;103088.13;4956758;28;124315;-62
2022/03/22 05:58:08;;;;;;;29.85;14.30;;;;;;;8.97;50.76;103086.41;4960103;28;115570;-63
2022/03/22 06:00:36;;;;;;;33.63;15.05;;;;;;;8.96;50.53;103089.91;4955824;28;113603;-60
2022/03/22 06:03:03;;;;;;;31.92;14.65;;;;;;;8.94;50.62;103086.38;4958752;28;124035;-60
2022/03/22 06:05:31;;;;;;;34.13;14.60;;;;;;;8.94;50.87;103086.38;4963439;28;123963;-63
2022/03/22 06:07:59;;;;;;;31.58;14.25;;;;;;;8.94;50.71;103094.31;4959776;28;114303;-62
2022/03/22 06:10:28;;;;;;;30.90;15.35;;;;;;;8.95;50.99;103093.44;4956109;28;114568;-61
2022/03/22 06:12:57;;;;;;;32.10;15.07;;;;;;;8.98;51.15;103092.56;4958066;28;123878;-61
2022/03/22 06:15:29;;;;;;;32.63;14.70;;;;;;;9.00;51.13;103096.94;4955001;28;123720;-62
2022/03/22 06:18:01;;;;;;;31.50;14.38;;;;;;;9.03;50.96;103090.78;4962860;28;114362;-61
2022/03/22 06:20:34;;;;;;;36.05;14.98;;;;;;;9.04;50.90;103093.44;4959138;28;112982;-61
2022/03/22 06:23:04;;;;;;;29.48;14.82;;;;;;;9.06;51.14;103094.31;4961084;28;125407;-61
2022/03/22 06:25:32;;;;;;;34.45;15.82;;;;;;;9.11;50.89;103104.84;4959392;28;124125;-61
2022/03/22 06:28:00;;;;;;;27.63;14.18;;;;;;;9.12;50.97;103096.94;4955165;28;113360;-61
2022/03/22 06:30:27;;;;;;;33.60;14.88;;;;;;;9.15;51.21;103102.22;4963357;28;114211;-62
2022/03/22 06:32:57;;;;;;;29.95;14.25;;;;;;;9.19;50.88;103103.06;4952158;28;123823;-60
2022/03/22 06:35:30;;;;;;;29.92;15.07;;;;;;;9.23;51.16;103109.22;4956044;28;124334;-60
2022/03/22 06:37:59;;;;;;;31.00;15.10;;;;;;;9.27;51.19;103108.34;4962393;28;115569;-60
2022/03/22 06:40:29;;;;;;;31.30;15.45;;;;;;;9.34;51.51;103110.06;4955617;28;113822;-60
2022/03/22 06:42:57;;;;;;;36.05;16.15;;;;;;;9.42;51.79;103108.28;4955688;28;125326;-60
2022/03/22 06:45:25;;;;;;;33.38;16.17;;;;;;;9.51;51.79;103112.66;4960951;28;123769;-60
2022/03/22 06:47:52;;;;;;;31.70;15.52;;;;;;;9.61;51.85;103110.88;4956577;28;114143;-61
2022/03/22 06:50:20;;;;;;;33.67;16.52;;;;;;;9.72;52.02;103109.06;4961636;28;114017;-60
2022/03/22 06:52:47;;;;;;;31.17;15.05;;;;;;;9.85;51.73;103115.13;4965527;28;124570;-60
2022/03/22 06:55:16;;;;;;;29.55;15.43;;;;;;;9.99;52.16;103107.13;4962516;28;123049;-60
2022/03/22 06:57:44;;;;;;;32.75;16.23;;;;;;;10.13;51.84;103115.84;4955476;28;114161;-60
2022/03/22 07:00:15;;;;;;;31.45;15.40;;;;;;;10.25;51.93;103115.78;4955906;28;113681;-60
2022/03/22 07:02:42;;;;;;;30.98;15.90;;;;;;;10.40;51.99;103117.47;4960103;28;124094;-60
2022/03/22 07:05:11;;;;;;;33.15;16.45;;;;;;;10.55;51.94;103113.84;4958392;28;123731;-60
2022/03/22 07:07:39;;;;;;;31.77;17.15;;;;;;;10.68;52.37;103120.78;4958810;28;114796;-60
2022/03/22 07:10:11;;;;;;;28.00;15.57;;;;;;;10.84;52.16;103115.34;4951277;28;113786;-60
2022/03/22 07:12:56;;;;;;;30.10;16.25;;;;;;;11.00;52.07;103116.94;4949866;28;124266;-60
2022/03/22 07:15:29;;;;;;;28.70;15.63;;;;;;;11.17;51.67;103118.53;4956396;28;124309;-61
2022/03/22 07:18:00;;;;;;;31.60;16.15;;;;;;;11.32;51.87;103123.69;4955780;28;114120;-61
2022/03/22 07:20:28;;;;;;;29.13;16.35;;;;;;;11.46;51.43;103116.41;4957655;28;113869;-62
2022/03/22 07:22:59;;;;;;;29.48;16.27;;;;;;;11.62;51.54;103121.53;4951544;28;124353;-63
2022/03/22 07:25:26;;;;;;;32.38;16.42;;;;;;;11.77;51.05;103121.34;4957276;28;124722;-62
2022/03/22 07:27:54;;;;;;;30.00;15.82;;;;;;;11.92;51.10;103116.75;4952999;28;115786;-62
2022/03/22 07:30:22;;;;;;;29.98;15.30;;;;;;;12.06;51.03;103120.97;4951643;28;113856;-62
2022/03/22 07:32:49;;;;;;;28.95;15.35;;;;;;;12.21;50.99;103121.66;4953902;28;123877;-62
2022/03/22 07:35:19;;;;;;;32.90;15.98;;;;;;;12.36;50.79;103125.84;4958389;28;123812;-62
2022/03/22 07:37:49;;;;;;;29.27;15.23;;;;;;;12.52;50.64;103127.31;4954870;28;114643;-62
2022/03/22 07:40:18;;;;;;;31.52;15.73;;;;;;;12.69;50.52;103128.84;4948137;28;113679;-62
2022/03/22 07:42:48;;;;;;;30.80;15.32;;;;;;;12.83;50.17;103122.38;4951442;28;124489;-62
2022/03/22 07:45:19;;;;;;;25.52;14.10;;;;;;;12.95;49.68;103126.59;4952791;28;124240;-62
2022/03/22 07:47:48;;;;;;;26.48;14.50;;;;;;;13.07;49.58;103129.94;4954399;28;113461;-62
2022/03/22 07:53:01;;;;;;;25.52;14.75;;;;;;;13.29;49.17;103128.59;4958082;28;124913;-62
2022/03/22 07:55:31;;;;;;;25.98;14.88;;;;;;;13.41;48.95;103114.19;4951772;28;123026;-62
2022/03/22 07:57:59;;;;;;;25.52;14.65;;;;;;;13.53;48.69;103123.75;4951595;28;114131;-62
2022/03/22 08:00:29;;;;;;;30.23;14.38;;;;;;;13.65;48.46;103128.78;4958775;28;113852;-62
2022/03/22 08:02:58;;;;;;;26.35;14.45;;;;;;;13.79;48.45;103132.03;4956701;28;124062;-61
2022/03/22 08:05:27;;;;;;;24.85;13.88;;;;;;;13.96;48.15;103134.34;4956761;28;124975;-61
2022/03/22 08:07:54;;;;;;;24.63;14.45;;;;;;;14.09;47.70;103129.59;4938421;28;113109;-61
2022/03/22 08:10:34;;;;;;;28.33;15.00;;;;;;;14.23;47.61;103125.75;4951277;28;114101;-61
2022/03/22 08:13:02;;;;;;;25.92;13.57;;;;;;;14.38;47.73;103133.38;4956490;28;124106;-61
2022/03/22 08:15:29;;;;;;;26.35;14.40;;;;;;;14.52;47.21;103128.59;4957480;28;123799;-61
2022/03/22 08:17:56;;;;;;;29.17;14.95;;;;;;;14.63;47.11;103119.47;4953405;28;115049;-62
2022/03/22 08:20:27;;;;;;;23.75;13.43;;;;;;;14.76;46.98;103132.44;4951793;28;114081;-62
2022/03/22 08:22:59;;;;;;;25.48;13.57;;;;;;;14.91;46.62;103125.81;4949340;28;124054;-62
2022/03/22 08:25:31;;;;;;;29.67;14.02;;;;;;;15.07;46.35;103141.41;4949695;28;123807;-62
2022/03/22 08:28:00;;;;;;;25.63;13.85;;;;;;;15.21;46.23;103133.91;4948710;28;114344;-62
2022/03/22 08:30:28;;;;;;;23.50;14.00;;;;;;;15.37;46.11;103140.56;4965610;28;113831;-62
2022/03/22 08:33:00;;;;;;;24.08;13.55;;;;;;;15.53;45.65;103140.13;4949164;28;124876;-62
2022/03/22 08:35:28;;;;;;;25.10;13.98;;;;;;;15.65;45.38;103131.78;4949301;28;123696;-61
2022/03/22 08:37:55;;;;;;;25.95;13.88;;;;;;;15.75;45.17;103141.28;4949733;28;114223;-61
2022/03/22 08:40:23;;;;;;;25.10;13.63;;;;;;;15.88;44.90;103130.19;4949619;28;114341;-61
2022/03/22 08:42:52;;;;;;;23.58;13.65;;;;;;;16.01;44.68;103138.72;4952536;28;123345;-61
2022/03/22 08:45:22;;;;;;;22.65;13.82;;;;;;;16.14;44.46;103132.97;4953146;28;124717;-61
2022/03/22 08:47:51;;;;;;;21.83;13.30;;;;;;;16.28;44.06;103129.84;4952311;28;114117;-61
2022/03/22 08:50:25;;;;;;;23.55;13.85;;;;;;;16.41;43.96;103135.66;4950086;28;114404;-61
2022/03/22 08:52:56;;;;;;;24.83;13.02;;;;;;;16.52;43.86;103133.50;4953955;28;123958;-61
2022/03/22 08:55:25;;;;;;;26.88;13.60;;;;;;;16.67;43.59;103131.22;4953170;28;123235;-61
2022/03/22 08:57:53;;;;;;;25.08;14.10;;;;;;;16.81;43.47;103134.31;4953364;28;113225;-61
2022/03/22 09:00:21;;;;;;;24.38;12.75;;;;;;;16.95;43.25;103128.50;4951537;28;114276;-62
2022/03/22 09:02:50;;;;;;;23.38;13.20;;;;;;;17.11;43.03;103132.38;4951996;28;124776;-62
2022/03/22 09:08:08;;;;;;;25.67;13.32;;;;;;;17.43;42.52;103127.66;4951241;28;115301;-62
2022/03/22 09:10:36;;;;;;;24.17;13.52;;;;;;;17.54;42.09;103118.31;4953802;28;115802;-63
2022/03/22 09:13:04;;;;;;;25.27;13.23;;;;;;;17.66;42.34;103129.44;4952258;28;123966;-63
2022/03/22 09:15:36;;;;;;;27.52;13.73;;;;;;;17.79;41.87;103128.97;4952743;28;123189;-63
2022/03/22 09:18:04;;;;;;;24.38;13.52;;;;;;;17.88;41.57;103117.94;4953294;28;114202;-63
2022/03/22 09:20:32;;;;;;;26.30;13.90;;;;;;;17.97;41.51;103122.94;4949772;28;113663;-63
2022/03/22 09:23:01;;;;;;;26.85;13.80;;;;;;;18.07;41.20;103123.44;4953956;28;123964;-62
2022/03/22 09:25:28;;;;;;;24.65;13.25;;;;;;;18.21;41.45;103120.19;4951943;28;124140;-62
2022/03/22 09:27:56;;;;;;;22.60;12.88;;;;;;;18.35;40.74;103112.44;4951655;28;114436;-62
2022/03/22 09:30:24;;;;;;;23.90;14.20;;;;;;;18.45;40.64;103113.78;4952270;28;114314;-63
2022/03/22 09:32:51;;;;;;;24.83;13.25;;;;;;;18.56;40.72;103113.34;4951362;28;124066;-64
2022/03/22 09:35:19;;;;;;;24.50;13.07;;;;;;;18.71;40.69;103119.00;4949932;28;124329;-62
2022/03/22 09:37:48;;;;;;;23.05;12.48;;;;;;;18.85;40.34;103112.13;4951770;28;114037;-62
2022/03/22 09:40:19;;;;;;;21.42;12.68;;;;;;;18.97;39.73;103110.72;4951440;28;113941;-62
2022/03/22 09:42:47;;;;;;;21.35;13.65;;;;;;;19.05;39.51;103113.06;4951585;28;124356;-62
2022/03/22 09:45:26;;;;;;;22.45;13.48;;;;;;;19.11;39.38;103107.41;4951017;28;124278;-63
2022/03/22 09:47:54;;;;;;;25.92;14.45;;;;;;;19.22;39.50;103107.78;4964721;28;114104;-63
2022/03/22 09:51:44;;;;;;;24.00;13.60;;;;;;;19.35;39.37;103109.94;4970663;28;114597;-62
2022/03/22 09:53:11;;;;;;;22.42;13.30;;;;;;;19.47;39.07;103109.34;4970423;28;124143;-62
2022/03/22 09:55:39;;;;;;;27.88;13.52;;;;;;;19.60;39.01;103105.13;4972092;28;124389;-62
2022/03/22 09:58:06;;;;;;;23.00;13.35;;;;;;;19.72;38.55;103108.19;4968780;28;115148;-62
2022/03/22 10:00:34;;;;;;;21.42;13.40;;;;;;;19.80;38.61;103100.69;4969662;28;114913;-62
2022/03/22 10:03:02;;;;;;;24.95;12.90;;;;;;;19.88;38.14;103093.09;4970933;28;123881;-63
2022/03/22 10:05:29;;;;;;;22.38;13.32;;;;;;;19.97;37.82;103103.41;4970140;28;124669;-63
2022/03/22 10:08:00;;;;;;;22.60;13.48;;;;;;;20.06;37.61;103101.22;4972057;28;114419;-63
2022/03/22 10:10:28;;;;;;;24.00;13.25;;;;;;;20.13;37.43;103097.28;4969834;28;115128;-63
2022/03/22 10:13:00;;;;;;;23.52;12.73;;;;;;;20.20;37.17;103098.72;4972294;28;123948;-63
2022/03/22 10:15:36;;;;;;;22.70;13.60;;;;;;;20.30;37.25;103097.28;4971931;28;123111;-63
2022/03/22 10:18:09;;;;;;;23.05;12.55;;;;;;;20.43;36.67;103084.94;4972030;28;113221;-63
2022/03/22 10:20:39;;;;;;;25.40;13.57;;;;;;;20.54;36.55;103086.25;4969759;28;114904;-64
2022/03/22 10:23:10;;;;;;;23.92;12.50;;;;;;;20.62;36.74;103094.81;4971804;28;124509;-63
2022/03/22 10:25:39;;;;;;;22.50;12.73;;;;;;;20.71;36.23;103086.25;4972923;28;123992;-63
2022/03/22 10:28:07;;;;;;;21.95;12.35;;;;;;;20.77;36.09;103088.63;4970331;28;113990;-63
2022/03/22 10:30:35;;;;;;;23.15;12.32;;;;;;;20.85;35.99;103084.66;4969334;28;114127;-63
2022/03/22 10:33:02;;;;;;;24.92;13.45;;;;;;;20.89;35.79;103078.16;4969802;28;123885;-63
2022/03/22 10:35:32;;;;;;;28.05;13.07;;;;;;;20.92;35.37;103072.63;4969805;28;123924;-63
2022/03/22 10:38:03;;;;;;;23.20;13.13;;;;;;;20.95;35.04;103077.84;4969972;28;114457;-64
2022/03/22 10:40:40;;;;;;;23.87;12.30;;;;;;;20.97;35.07;103078.63;4969439;28;113966;-63
2022/03/22 10:43:23;;;;;;;24.35;12.57;;;;;;;21.01;35.04;103074.81;4970580;28;124140;-63
2022/03/22 10:45:54;;;;;;;22.65;12.75;;;;;;;21.06;34.87;103078.16;4965153;28;123823;-64
2022/03/22 10:48:24;;;;;;;23.33;12.73;;;;;;;21.12;34.63;103077.81;4958463;28;115261;-63
2022/03/22 10:50:53;;;;;;;20.95;12.23;;;;;;;21.19;34.66;103072.94;4949951;28;115456;-63
2022/03/22 10:53:23;;;;;;;21.42;11.90;;;;;;;21.24;34.38;103075.41;4951142;28;124074;-63
2022/03/22 10:55:58;;;;;;;20.92;12.18;;;;;;;21.31;34.58;103071.41;4950062;28;124280;-63
2022/03/22 10:58:27;;;;;;;23.70;12.82;;;;;;;21.41;34.52;103077.16;4951468;28;114687;-64
2022/03/22 11:00:56;;;;;;;24.85;12.82;;;;;;;21.52;34.50;103074.78;4955718;28;114267;-63
2022/03/22 11:03:29;;;;;;;21.05;11.50;;;;;;;21.63;34.18;103076.88;4959109;28;98772;-63
2022/03/22 11:06:02;;;;;;;22.92;11.82;;;;;;;21.71;33.60;103069.22;4970573;28;124086;-63
2022/03/22 11:08:29;;;;;;;22.38;11.93;;;;;;;21.78;33.46;103070.59;4971527;28;114021;-62
2022/03/22 11:10:57;;;;;;;20.33;11.88;;;;;;;21.82;33.31;103071.31;4965034;28;114174;-62
2022/03/22 11:13:24;;;;;;;24.35;11.88;;;;;;;21.87;33.24;103064.69;4953572;28;124074;-62
2022/03/22 11:15:54;;;;;;;22.08;11.45;;;;;;;21.97;32.90;103060.47;4968000;28;124243;-62
2022/03/22 11:18:25;;;;;;;21.38;12.07;;;;;;;22.05;32.64;103051.06;4971997;28;113943;-61
2022/03/22 11:20:55;;;;;;;21.67;12.25;;;;;;;22.10;32.50;103048.97;4969765;28;112890;-61
2022/03/22 11:23:25;;;;;;;22.35;11.45;;;;;;;22.15;32.51;103057.66;4953641;28;123611;-61
2022/03/22 11:25:52;;;;;;;24.83;11.82;;;;;;;22.23;32.57;103055.38;4952811;28;124761;-63
2022/03/22 11:28:22;;;;;;;23.48;11.70;;;;;;;22.31;32.27;103047.72;4949601;28;114442;-62
2022/03/22 11:30:52;;;;;;;21.15;11.48;;;;;;;22.40;32.30;103045.44;4948566;28;114425;-63
2022/03/22 11:36:20;;;;;;;20.13;11.25;;;;;;;22.52;32.58;103039.28;4966849;28;123980;-62
2022/03/22 11:38:51;;;;;;;20.20;10.48;;;;;;;22.63;32.41;103036.81;4961825;28;115153;-61